sensor_id;sensor_type;location;lat;lon;timestamp;P1;durP1;ratioP1;P2;durP2;ratioP2
58669;SDS011;44439;47.924;10.198;2022-10-31T00:00:49;11.52;;;4.40;;
58669;SDS011;44439;47.924;10.198;2022-10-31T00:03:35;14.90;;;4.40;;
58669;SDS011;44439;47.924;10.198;2022-10-31T00:06:21;8.95;;;3.92;;
58669;SDS011;44439;47.924;10.198;2022-10-31T00:09:09;9.02;;;3.47;;
58669;SDS011;44439;47.924;10.198;2022-10-31T00:11:54;6.70;;;2.85;;
58669;SDS011;44439;47.924;10.198;2022-10-31T00:14:40;11.77;;;3.17;;
58669;SDS011;44439;47.924;10.198;2022-10-31T00:17:26;7.05;;;3.55;;
58669;SDS011;44439;47.924;10.198;2022-10-31T00:20:12;9.30;;;2.88;;
58669;SDS011;44439;47.924;10.198;2022-10-31T00:22:58;11.00;;;2.95;;
58669;SDS011;44439;47.924;10.198;2022-10-31T00:25:44;6.47;;;2.90;;
58669;SDS011;44439;47.924;10.198;2022-10-31T00:28:30;7.43;;;2.67;;
58669;SDS011;44439;47.924;10.198;2022-10-31T00:31:17;12.90;;;3.70;;
58669;SDS011;44439;47.924;10.198;2022-10-31T00:34:02;6.63;;;3.42;;
58669;SDS011;44439;47.924;10.198;2022-10-31T00:36:48;8.68;;;3.40;;
58669;SDS011;44439;47.924;10.198;2022-10-31T00:39:34;9.70;;;2.92;;
58669;SDS011;44439;47.924;10.198;2022-10-31T00:42:20;6.95;;;3.22;;
58669;SDS011;44439;47.924;10.198;2022-10-31T00:45:05;7.95;;;3.45;;
58669;SDS011;44439;47.924;10.198;2022-10-31T00:47:51;6.20;;;2.95;;
58669;SDS011;44439;47.924;10.198;2022-10-31T00:50:37;8.45;;;3.50;;
58669;SDS011;44439;47.924;10.198;2022-10-31T00:53:23;6.38;;;2.78;;
58669;SDS011;44439;47.924;10.198;2022-10-31T00:56:09;6.50;;;2.95;;
58669;SDS011;44439;47.924;10.198;2022-10-31T00:58:55;8.30;;;2.88;;
58669;SDS011;44439;47.924;10.198;2022-10-31T01:01:40;6.75;;;2.88;;
58669;SDS011;44439;47.924;10.198;2022-10-31T01:04:26;8.98;;;3.22;;
58669;SDS011;44439;47.924;10.198;2022-10-31T01:07:12;8.77;;;3.55;;
58669;SDS011;44439;47.924;10.198;2022-10-31T01:09:59;8.07;;;2.97;;
58669;SDS011;44439;47.924;10.198;2022-10-31T01:12:45;6.50;;;3.25;;
58669;SDS011;44439;47.924;10.198;2022-10-31T01:15:32;5.95;;;3.03;;
58669;SDS011;44439;47.924;10.198;2022-10-31T01:18:18;7.18;;;3.28;;
58669;SDS011;44439;47.924;10.198;2022-10-31T01:21:11;5.88;;;3.33;;
58669;SDS011;44439;47.924;10.198;2022-10-31T01:23:58;7.47;;;3.42;;
58669;SDS011;44439;47.924;10.198;2022-10-31T01:26:43;6.55;;;3.00;;
58669;SDS011;44439;47.924;10.198;2022-10-31T01:29:29;7.30;;;3.00;;
58669;SDS011;44439;47.924;10.198;2022-10-31T01:32:15;8.57;;;3.33;;
58669;SDS011;44439;47.924;10.198;2022-10-31T01:35:00;10.23;;;3.40;;
58669;SDS011;44439;47.924;10.198;2022-10-31T01:37:46;9.60;;;3.33;;
58669;SDS011;44439;47.924;10.198;2022-10-31T01:40:32;7.43;;;3.30;;
58669;SDS011;44439;47.924;10.198;2022-10-31T01:43:18;6.22;;;3.42;;
58669;SDS011;44439;47.924;10.198;2022-10-31T01:46:04;10.93;;;4.00;;
58669;SDS011;44439;47.924;10.198;2022-10-31T01:48:50;7.72;;;3.53;;
58669;SDS011;44439;47.924;10.198;2022-10-31T01:51:38;7.75;;;3.10;;
58669;SDS011;44439;47.924;10.198;2022-10-31T01:54:27;9.25;;;3.05;;
58669;SDS011;44439;47.924;10.198;2022-10-31T01:57:16;10.73;;;3.53;;
58669;SDS011;44439;47.924;10.198;2022-10-31T02:00:04;6.78;;;3.75;;
58669;SDS011;44439;47.924;10.198;2022-10-31T02:02:52;5.90;;;3.40;;
58669;SDS011;44439;47.924;10.198;2022-10-31T02:05:41;9.38;;;3.75;;
58669;SDS011;44439;47.924;10.198;2022-10-31T02:08:30;9.82;;;3.83;;
58669;SDS011;44439;47.924;10.198;2022-10-31T02:11:16;7.38;;;3.42;;
58669;SDS011;44439;47.924;10.198;2022-10-31T02:14:02;8.93;;;3.38;;
58669;SDS011;44439;47.924;10.198;2022-10-31T02:16:48;9.68;;;3.50;;
58669;SDS011;44439;47.924;10.198;2022-10-31T02:32:10;9.82;;;3.80;;
58669;SDS011;44439;47.924;10.198;2022-10-31T02:35:13;8.13;;;3.42;;
58669;SDS011;44439;47.924;10.198;2022-10-31T02:38:04;9.07;;;3.15;;
58669;SDS011;44439;47.924;10.198;2022-10-31T02:41:19;7.82;;;3.55;;
58669;SDS011;44439;47.924;10.198;2022-10-31T02:44:16;5.90;;;2.78;;
58669;SDS011;44439;47.924;10.198;2022-10-31T02:47:13;8.35;;;3.22;;
58669;SDS011;44439;47.924;10.198;2022-10-31T02:50:03;9.73;;;3.40;;
58669;SDS011;44439;47.924;10.198;2022-10-31T02:52:51;8.03;;;3.17;;
58669;SDS011;44439;47.924;10.198;2022-10-31T02:58:23;7.03;;;3.13;;
58669;SDS011;44439;47.924;10.198;2022-10-31T03:10:21;5.57;;;2.47;;
58669;SDS011;44439;47.924;10.198;2022-10-31T03:13:18;7.45;;;2.80;;
58669;SDS011;44439;47.924;10.198;2022-10-31T03:19:04;6.97;;;3.05;;
58669;SDS011;44439;47.924;10.198;2022-10-31T03:24:40;11.32;;;3.75;;
58669;SDS011;44439;47.924;10.198;2022-10-31T03:27:27;3.90;;;2.38;;
58669;SDS011;44439;47.924;10.198;2022-10-31T03:30:16;6.85;;;3.13;;
58669;SDS011;44439;47.924;10.198;2022-10-31T03:33:02;6.90;;;3.00;;
58669;SDS011;44439;47.924;10.198;2022-10-31T03:35:51;6.68;;;3.10;;
58669;SDS011;44439;47.924;10.198;2022-10-31T03:38:38;8.77;;;3.08;;
58669;SDS011;44439;47.924;10.198;2022-10-31T03:41:25;9.05;;;2.80;;
58669;SDS011;44439;47.924;10.198;2022-10-31T03:44:17;6.53;;;2.83;;
58669;SDS011;44439;47.924;10.198;2022-10-31T03:47:07;7.53;;;3.28;;
58669;SDS011;44439;47.924;10.198;2022-10-31T03:49:53;5.95;;;2.80;;
58669;SDS011;44439;47.924;10.198;2022-10-31T03:52:41;7.93;;;2.92;;
58669;SDS011;44439;47.924;10.198;2022-10-31T03:55:39;8.77;;;2.90;;
58669;SDS011;44439;47.924;10.198;2022-10-31T03:58:28;6.93;;;2.90;;
58669;SDS011;44439;47.924;10.198;2022-10-31T04:01:17;10.50;;;2.95;;
58669;SDS011;44439;47.924;10.198;2022-10-31T04:04:04;7.78;;;2.50;;
58669;SDS011;44439;47.924;10.198;2022-10-31T04:06:51;6.63;;;2.85;;
58669;SDS011;44439;47.924;10.198;2022-10-31T04:09:38;8.75;;;3.08;;
58669;SDS011;44439;47.924;10.198;2022-10-31T04:12:26;7.38;;;2.50;;
58669;SDS011;44439;47.924;10.198;2022-10-31T04:15:13;6.57;;;2.45;;
58669;SDS011;44439;47.924;10.198;2022-10-31T04:17:59;7.28;;;2.58;;
58669;SDS011;44439;47.924;10.198;2022-10-31T04:20:46;10.07;;;3.28;;
58669;SDS011;44439;47.924;10.198;2022-10-31T04:23:34;7.80;;;2.70;;
58669;SDS011;44439;47.924;10.198;2022-10-31T04:26:21;6.50;;;2.60;;
58669;SDS011;44439;47.924;10.198;2022-10-31T04:29:06;6.82;;;2.65;;
58669;SDS011;44439;47.924;10.198;2022-10-31T04:31:52;9.57;;;2.85;;
58669;SDS011;44439;47.924;10.198;2022-10-31T04:34:38;7.35;;;2.60;;
58669;SDS011;44439;47.924;10.198;2022-10-31T04:37:23;7.30;;;2.60;;
58669;SDS011;44439;47.924;10.198;2022-10-31T04:40:09;5.90;;;2.55;;
58669;SDS011;44439;47.924;10.198;2022-10-31T04:42:55;7.35;;;3.00;;
58669;SDS011;44439;47.924;10.198;2022-10-31T04:45:41;8.60;;;2.50;;
58669;SDS011;44439;47.924;10.198;2022-10-31T04:48:27;6.43;;;2.30;;
58669;SDS011;44439;47.924;10.198;2022-10-31T04:51:12;9.13;;;3.22;;
58669;SDS011;44439;47.924;10.198;2022-10-31T04:53:58;7.30;;;2.45;;
58669;SDS011;44439;47.924;10.198;2022-10-31T04:56:44;7.55;;;2.45;;
58669;SDS011;44439;47.924;10.198;2022-10-31T04:59:29;6.60;;;2.47;;
58669;SDS011;44439;47.924;10.198;2022-10-31T05:02:15;7.13;;;2.60;;
58669;SDS011;44439;47.924;10.198;2022-10-31T05:05:01;9.63;;;2.80;;
58669;SDS011;44439;47.924;10.198;2022-10-31T05:07:48;9.20;;;2.60;;
58669;SDS011;44439;47.924;10.198;2022-10-31T05:10:35;6.15;;;2.47;;
58669;SDS011;44439;47.924;10.198;2022-10-31T05:13:21;12.98;;;2.35;;
58669;SDS011;44439;47.924;10.198;2022-10-31T05:16:07;7.18;;;2.40;;
58669;SDS011;44439;47.924;10.198;2022-10-31T05:18:52;7.75;;;2.90;;
58669;SDS011;44439;47.924;10.198;2022-10-31T05:21:38;7.90;;;2.38;;
58669;SDS011;44439;47.924;10.198;2022-10-31T05:24:24;9.73;;;2.45;;
58669;SDS011;44439;47.924;10.198;2022-10-31T05:27:09;5.07;;;2.33;;
58669;SDS011;44439;47.924;10.198;2022-10-31T05:29:55;8.05;;;2.58;;
58669;SDS011;44439;47.924;10.198;2022-10-31T05:32:42;6.82;;;2.42;;
58669;SDS011;44439;47.924;10.198;2022-10-31T05:35:32;9.05;;;2.40;;
58669;SDS011;44439;47.924;10.198;2022-10-31T05:38:18;6.60;;;2.90;;
58669;SDS011;44439;47.924;10.198;2022-10-31T05:41:04;11.68;;;3.13;;
58669;SDS011;44439;47.924;10.198;2022-10-31T05:43:49;7.13;;;2.22;;
58669;SDS011;44439;47.924;10.198;2022-10-31T05:46:35;8.85;;;2.50;;
58669;SDS011;44439;47.924;10.198;2022-10-31T05:49:21;6.05;;;2.28;;
58669;SDS011;44439;47.924;10.198;2022-10-31T05:52:07;10.73;;;2.47;;
58669;SDS011;44439;47.924;10.198;2022-10-31T05:54:53;6.03;;;2.28;;
58669;SDS011;44439;47.924;10.198;2022-10-31T05:57:39;5.65;;;1.80;;
58669;SDS011;44439;47.924;10.198;2022-10-31T06:00:25;5.50;;;2.17;;
58669;SDS011;44439;47.924;10.198;2022-10-31T06:03:11;3.35;;;1.75;;
58669;SDS011;44439;47.924;10.198;2022-10-31T06:05:57;6.22;;;2.10;;
58669;SDS011;44439;47.924;10.198;2022-10-31T06:08:43;9.27;;;2.40;;
58669;SDS011;44439;47.924;10.198;2022-10-31T06:11:28;10.48;;;2.67;;
58669;SDS011;44439;47.924;10.198;2022-10-31T06:14:14;6.40;;;2.50;;
58669;SDS011;44439;47.924;10.198;2022-10-31T06:17:00;5.78;;;2.17;;
58669;SDS011;44439;47.924;10.198;2022-10-31T06:19:45;6.57;;;2.03;;
58669;SDS011;44439;47.924;10.198;2022-10-31T06:22:31;7.43;;;2.40;;
58669;SDS011;44439;47.924;10.198;2022-10-31T06:25:17;12.23;;;2.70;;
58669;SDS011;44439;47.924;10.198;2022-10-31T06:28:03;4.10;;;2.10;;
58669;SDS011;44439;47.924;10.198;2022-10-31T06:30:49;9.30;;;2.38;;
58669;SDS011;44439;47.924;10.198;2022-10-31T06:33:35;7.35;;;2.17;;
58669;SDS011;44439;47.924;10.198;2022-10-31T06:36:20;6.60;;;2.00;;
58669;SDS011;44439;47.924;10.198;2022-10-31T06:39:06;6.25;;;1.83;;
58669;SDS011;44439;47.924;10.198;2022-10-31T06:41:52;6.85;;;1.98;;
58669;SDS011;44439;47.924;10.198;2022-10-31T06:44:37;7.40;;;2.17;;
58669;SDS011;44439;47.924;10.198;2022-10-31T06:47:23;6.65;;;1.95;;
58669;SDS011;44439;47.924;10.198;2022-10-31T06:50:08;4.70;;;1.67;;
58669;SDS011;44439;47.924;10.198;2022-10-31T06:52:55;5.07;;;1.98;;
58669;SDS011;44439;47.924;10.198;2022-10-31T06:55:42;7.75;;;1.85;;
58669;SDS011;44439;47.924;10.198;2022-10-31T06:58:28;5.32;;;1.90;;
58669;SDS011;44439;47.924;10.198;2022-10-31T07:01:15;5.43;;;2.28;;
58669;SDS011;44439;47.924;10.198;2022-10-31T07:04:01;6.80;;;2.20;;
58669;SDS011;44439;47.924;10.198;2022-10-31T07:06:46;4.88;;;2.10;;
58669;SDS011;44439;47.924;10.198;2022-10-31T07:09:32;5.57;;;1.85;;
58669;SDS011;44439;47.924;10.198;2022-10-31T07:12:17;7.93;;;1.98;;
58669;SDS011;44439;47.924;10.198;2022-10-31T07:15:04;5.72;;;2.10;;
58669;SDS011;44439;47.924;10.198;2022-10-31T07:17:50;8.70;;;2.33;;
58669;SDS011;44439;47.924;10.198;2022-10-31T07:20:35;7.85;;;3.50;;
58669;SDS011;44439;47.924;10.198;2022-10-31T07:23:21;5.10;;;2.92;;
58669;SDS011;44439;47.924;10.198;2022-10-31T07:26:08;8.30;;;3.17;;
58669;SDS011;44439;47.924;10.198;2022-10-31T07:28:55;6.00;;;2.45;;
58669;SDS011;44439;47.924;10.198;2022-10-31T07:31:40;10.38;;;2.85;;
58669;SDS011;44439;47.924;10.198;2022-10-31T07:34:26;9.55;;;2.83;;
58669;SDS011;44439;47.924;10.198;2022-10-31T07:37:11;6.05;;;2.47;;
58669;SDS011;44439;47.924;10.198;2022-10-31T07:39:57;11.10;;;2.88;;
58669;SDS011;44439;47.924;10.198;2022-10-31T07:42:44;10.75;;;2.67;;
58669;SDS011;44439;47.924;10.198;2022-10-31T07:45:33;7.68;;;2.85;;
58669;SDS011;44439;47.924;10.198;2022-10-31T07:48:19;12.13;;;2.88;;
58669;SDS011;44439;47.924;10.198;2022-10-31T07:51:05;6.07;;;3.58;;
58669;SDS011;44439;47.924;10.198;2022-10-31T07:53:52;10.35;;;3.45;;
58669;SDS011;44439;47.924;10.198;2022-10-31T07:56:37;12.38;;;3.63;;
58669;SDS011;44439;47.924;10.198;2022-10-31T07:59:23;10.73;;;3.20;;
58669;SDS011;44439;47.924;10.198;2022-10-31T08:02:10;14.35;;;3.10;;
58669;SDS011;44439;47.924;10.198;2022-10-31T08:04:56;7.18;;;3.15;;
58669;SDS011;44439;47.924;10.198;2022-10-31T08:07:42;10.70;;;3.22;;
58669;SDS011;44439;47.924;10.198;2022-10-31T08:10:28;11.13;;;3.15;;
58669;SDS011;44439;47.924;10.198;2022-10-31T08:13:13;13.18;;;3.72;;
58669;SDS011;44439;47.924;10.198;2022-10-31T08:15:59;13.90;;;5.57;;
58669;SDS011;44439;47.924;10.198;2022-10-31T08:18:49;14.10;;;4.70;;
58669;SDS011;44439;47.924;10.198;2022-10-31T08:21:34;22.20;;;3.75;;
58669;SDS011;44439;47.924;10.198;2022-10-31T08:24:20;14.55;;;3.78;;
58669;SDS011;44439;47.924;10.198;2022-10-31T08:27:07;8.15;;;3.05;;
58669;SDS011;44439;47.924;10.198;2022-10-31T08:29:52;15.63;;;2.63;;
58669;SDS011;44439;47.924;10.198;2022-10-31T08:32:38;9.63;;;2.63;;
58669;SDS011;44439;47.924;10.198;2022-10-31T08:35:23;14.13;;;2.80;;
58669;SDS011;44439;47.924;10.198;2022-10-31T08:38:10;9.18;;;2.30;;
58669;SDS011;44439;47.924;10.198;2022-10-31T08:40:56;6.82;;;2.15;;
58669;SDS011;44439;47.924;10.198;2022-10-31T08:43:42;9.50;;;2.45;;
58669;SDS011;44439;47.924;10.198;2022-10-31T08:46:28;11.88;;;2.30;;
58669;SDS011;44439;47.924;10.198;2022-10-31T08:49:13;13.10;;;2.30;;
58669;SDS011;44439;47.924;10.198;2022-10-31T08:51:59;14.77;;;3.13;;
58669;SDS011;44439;47.924;10.198;2022-10-31T08:54:45;9.93;;;1.88;;
58669;SDS011;44439;47.924;10.198;2022-10-31T08:57:30;7.38;;;1.92;;
58669;SDS011;44439;47.924;10.198;2022-10-31T09:00:16;5.93;;;1.70;;
58669;SDS011;44439;47.924;10.198;2022-10-31T09:03:03;10.20;;;1.98;;
58669;SDS011;44439;47.924;10.198;2022-10-31T09:05:54;11.10;;;2.03;;
58669;SDS011;44439;47.924;10.198;2022-10-31T09:08:41;5.30;;;1.70;;
58669;SDS011;44439;47.924;10.198;2022-10-31T09:11:26;7.80;;;1.60;;
58669;SDS011;44439;47.924;10.198;2022-10-31T09:14:12;12.52;;;1.83;;
58669;SDS011;44439;47.924;10.198;2022-10-31T09:16:58;8.73;;;2.20;;
58669;SDS011;44439;47.924;10.198;2022-10-31T09:19:43;9.88;;;2.00;;
58669;SDS011;44439;47.924;10.198;2022-10-31T09:22:29;9.40;;;2.03;;
58669;SDS011;44439;47.924;10.198;2022-10-31T09:25:15;10.10;;;2.40;;
58669;SDS011;44439;47.924;10.198;2022-10-31T09:28:01;11.80;;;2.60;;
58669;SDS011;44439;47.924;10.198;2022-10-31T09:30:48;10.15;;;2.40;;
58669;SDS011;44439;47.924;10.198;2022-10-31T09:33:38;7.20;;;2.45;;
58669;SDS011;44439;47.924;10.198;2022-10-31T09:36:23;11.57;;;2.30;;
58669;SDS011;44439;47.924;10.198;2022-10-31T09:39:09;5.80;;;1.90;;
58669;SDS011;44439;47.924;10.198;2022-10-31T09:44:47;9.70;;;2.45;;
58669;SDS011;44439;47.924;10.198;2022-10-31T09:50:44;5.88;;;2.08;;
58669;SDS011;44439;47.924;10.198;2022-10-31T09:56:33;9.93;;;2.40;;
58669;SDS011;44439;47.924;10.198;2022-10-31T09:59:36;13.77;;;2.90;;
58669;SDS011;44439;47.924;10.198;2022-10-31T10:05:13;5.57;;;3.13;;
58669;SDS011;44439;47.924;10.198;2022-10-31T10:11:02;8.70;;;2.70;;
58669;SDS011;44439;47.924;10.198;2022-10-31T10:17:35;7.90;;;3.17;;
58669;SDS011;44439;47.924;10.198;2022-10-31T10:26:20;9.77;;;2.85;;
58669;SDS011;44439;47.924;10.198;2022-10-31T10:29:14;11.35;;;3.28;;
58669;SDS011;44439;47.924;10.198;2022-10-31T10:32:18;10.80;;;3.38;;
58669;SDS011;44439;47.924;10.198;2022-10-31T10:35:11;11.75;;;3.63;;
58669;SDS011;44439;47.924;10.198;2022-10-31T10:38:12;8.40;;;3.30;;
58669;SDS011;44439;47.924;10.198;2022-10-31T10:41:02;8.18;;;2.92;;
58669;SDS011;44439;47.924;10.198;2022-10-31T10:43:51;8.75;;;3.63;;
58669;SDS011;44439;47.924;10.198;2022-10-31T10:49:50;10.52;;;3.42;;
58669;SDS011;44439;47.924;10.198;2022-10-31T10:52:40;9.40;;;3.80;;
58669;SDS011;44439;47.924;10.198;2022-10-31T10:58:25;9.68;;;4.10;;
58669;SDS011;44439;47.924;10.198;2022-10-31T11:01:14;9.77;;;3.88;;
58669;SDS011;44439;47.924;10.198;2022-10-31T11:04:01;9.05;;;4.07;;
58669;SDS011;44439;47.924;10.198;2022-10-31T11:06:56;12.80;;;3.80;;
58669;SDS011;44439;47.924;10.198;2022-10-31T11:09:42;11.10;;;3.85;;
58669;SDS011;44439;47.924;10.198;2022-10-31T11:12:29;11.23;;;3.90;;
58669;SDS011;44439;47.924;10.198;2022-10-31T11:15:18;9.77;;;3.42;;
58669;SDS011;44439;47.924;10.198;2022-10-31T11:18:12;11.48;;;3.72;;
58669;SDS011;44439;47.924;10.198;2022-10-31T11:21:05;9.35;;;3.25;;
58669;SDS011;44439;47.924;10.198;2022-10-31T11:24:01;10.80;;;3.17;;
58669;SDS011;44439;47.924;10.198;2022-10-31T11:26:48;7.88;;;3.42;;
58669;SDS011;44439;47.924;10.198;2022-10-31T11:29:35;10.82;;;3.78;;
58669;SDS011;44439;47.924;10.198;2022-10-31T11:32:22;11.15;;;3.63;;
58669;SDS011;44439;47.924;10.198;2022-10-31T11:35:10;8.50;;;3.70;;
58669;SDS011;44439;47.924;10.198;2022-10-31T11:37:58;11.32;;;3.53;;
58669;SDS011;44439;47.924;10.198;2022-10-31T11:40:51;11.77;;;3.28;;
58669;SDS011;44439;47.924;10.198;2022-10-31T11:43:38;9.35;;;3.88;;
58669;SDS011;44439;47.924;10.198;2022-10-31T11:46:38;13.80;;;3.75;;
58669;SDS011;44439;47.924;10.198;2022-10-31T11:55:59;11.18;;;4.45;;
58669;SDS011;44439;47.924;10.198;2022-10-31T11:58:19;9.93;;;3.47;;
58669;SDS011;44439;47.924;10.198;2022-10-31T12:01:08;13.98;;;5.00;;
58669;SDS011;44439;47.924;10.198;2022-10-31T12:04:11;9.80;;;4.40;;
58669;SDS011;44439;47.924;10.198;2022-10-31T12:06:57;9.95;;;3.97;;
58669;SDS011;44439;47.924;10.198;2022-10-31T12:09:43;10.70;;;4.20;;
58669;SDS011;44439;47.924;10.198;2022-10-31T12:12:34;9.65;;;4.13;;
58669;SDS011;44439;47.924;10.198;2022-10-31T12:15:32;11.02;;;4.25;;
58669;SDS011;44439;47.924;10.198;2022-10-31T12:27:34;10.98;;;4.47;;
58669;SDS011;44439;47.924;10.198;2022-10-31T12:33:40;9.90;;;4.18;;
58669;SDS011;44439;47.924;10.198;2022-10-31T12:36:40;11.63;;;4.45;;
58669;SDS011;44439;47.924;10.198;2022-10-31T12:45:59;9.63;;;4.47;;
58669;SDS011;44439;47.924;10.198;2022-10-31T12:49:30;12.00;;;4.13;;
58669;SDS011;44439;47.924;10.198;2022-10-31T12:58:26;10.15;;;3.97;;
58669;SDS011;44439;47.924;10.198;2022-10-31T13:01:26;11.95;;;3.95;;
58669;SDS011;44439;47.924;10.198;2022-10-31T13:04:17;11.90;;;4.10;;
58669;SDS011;44439;47.924;10.198;2022-10-31T13:07:17;14.52;;;4.80;;
58669;SDS011;44439;47.924;10.198;2022-10-31T13:10:07;8.05;;;4.10;;
58669;SDS011;44439;47.924;10.198;2022-10-31T13:13:07;10.00;;;4.40;;
58669;SDS011;44439;47.924;10.198;2022-10-31T13:16:02;12.02;;;4.82;;
58669;SDS011;44439;47.924;10.198;2022-10-31T13:28:00;10.45;;;4.10;;
58669;SDS011;44439;47.924;10.198;2022-10-31T13:30:48;8.75;;;3.83;;
58669;SDS011;44439;47.924;10.198;2022-10-31T13:33:39;7.90;;;3.85;;
58669;SDS011;44439;47.924;10.198;2022-10-31T13:36:37;8.07;;;4.60;;
58669;SDS011;44439;47.924;10.198;2022-10-31T13:39:32;13.90;;;5.50;;
58669;SDS011;44439;47.924;10.198;2022-10-31T13:45:26;17.92;;;6.30;;
58669;SDS011;44439;47.924;10.198;2022-10-31T13:51:00;14.18;;;5.97;;
58669;SDS011;44439;47.924;10.198;2022-10-31T13:56:36;11.02;;;4.82;;
58669;SDS011;44439;47.924;10.198;2022-10-31T13:59:22;11.10;;;5.03;;
58669;SDS011;44439;47.924;10.198;2022-10-31T14:02:13;12.73;;;4.60;;
58669;SDS011;44439;47.924;10.198;2022-10-31T14:05:06;14.52;;;4.90;;
58669;SDS011;44439;47.924;10.198;2022-10-31T14:08:01;12.88;;;5.10;;
58669;SDS011;44439;47.924;10.198;2022-10-31T14:10:53;9.52;;;4.75;;
58669;SDS011;44439;47.924;10.198;2022-10-31T14:13:43;13.43;;;4.63;;
58669;SDS011;44439;47.924;10.198;2022-10-31T14:16:30;16.67;;;5.53;;
58669;SDS011;44439;47.924;10.198;2022-10-31T14:19:17;8.40;;;4.70;;
58669;SDS011;44439;47.924;10.198;2022-10-31T14:22:04;11.68;;;4.78;;
58669;SDS011;44439;47.924;10.198;2022-10-31T14:28:33;13.23;;;5.03;;
58669;SDS011;44439;47.924;10.198;2022-10-31T14:31:30;15.10;;;5.47;;
58669;SDS011;44439;47.924;10.198;2022-10-31T14:34:33;12.13;;;5.00;;
58669;SDS011;44439;47.924;10.198;2022-10-31T14:40:26;10.65;;;5.22;;
58669;SDS011;44439;47.924;10.198;2022-10-31T14:46:30;13.45;;;6.22;;
58669;SDS011;44439;47.924;10.198;2022-10-31T14:52:33;8.93;;;4.22;;
58669;SDS011;44439;47.924;10.198;2022-10-31T14:55:21;14.15;;;3.63;;
58669;SDS011;44439;47.924;10.198;2022-10-31T14:58:08;10.88;;;3.80;;
58669;SDS011;44439;47.924;10.198;2022-10-31T15:00:55;6.07;;;3.20;;
58669;SDS011;44439;47.924;10.198;2022-10-31T15:03:42;13.48;;;4.53;;
58669;SDS011;44439;47.924;10.198;2022-10-31T15:06:30;12.10;;;4.20;;
58669;SDS011;44439;47.924;10.198;2022-10-31T15:09:35;10.52;;;3.85;;
58669;SDS011;44439;47.924;10.198;2022-10-31T15:15:23;9.10;;;3.78;;
58669;SDS011;44439;47.924;10.198;2022-10-31T15:18:13;13.07;;;3.95;;
58669;SDS011;44439;47.924;10.198;2022-10-31T15:21:01;9.35;;;3.90;;
58669;SDS011;44439;47.924;10.198;2022-10-31T15:23:47;7.97;;;3.30;;
58669;SDS011;44439;47.924;10.198;2022-10-31T15:26:37;6.25;;;3.25;;
58669;SDS011;44439;47.924;10.198;2022-10-31T15:29:26;15.13;;;8.27;;
58669;SDS011;44439;47.924;10.198;2022-10-31T15:32:28;13.90;;;8.30;;
58669;SDS011;44439;47.924;10.198;2022-10-31T15:35:24;15.35;;;11.70;;
58669;SDS011;44439;47.924;10.198;2022-10-31T15:38:13;15.30;;;11.30;;
58669;SDS011;44439;47.924;10.198;2022-10-31T15:41:03;11.80;;;6.50;;
58669;SDS011;44439;47.924;10.198;2022-10-31T15:43:50;11.57;;;5.80;;
58669;SDS011;44439;47.924;10.198;2022-10-31T15:46:36;8.98;;;5.70;;
58669;SDS011;44439;47.924;10.198;2022-10-31T15:49:32;14.48;;;5.00;;
58669;SDS011;44439;47.924;10.198;2022-10-31T15:52:26;12.90;;;6.60;;
58669;SDS011;44439;47.924;10.198;2022-10-31T15:55:16;10.77;;;6.22;;
58669;SDS011;44439;47.924;10.198;2022-10-31T15:58:10;15.07;;;10.75;;
58669;SDS011;44439;47.924;10.198;2022-10-31T16:01:01;8.32;;;4.78;;
58669;SDS011;44439;47.924;10.198;2022-10-31T16:04:22;9.20;;;4.30;;
58669;SDS011;44439;47.924;10.198;2022-10-31T16:07:14;10.07;;;4.07;;
58669;SDS011;44439;47.924;10.198;2022-10-31T16:10:02;9.32;;;4.38;;
58669;SDS011;44439;47.924;10.198;2022-10-31T16:12:49;10.25;;;4.53;;
58669;SDS011;44439;47.924;10.198;2022-10-31T16:15:34;8.90;;;4.80;;
58669;SDS011;44439;47.924;10.198;2022-10-31T16:18:21;12.85;;;4.30;;
58669;SDS011;44439;47.924;10.198;2022-10-31T16:21:06;9.85;;;5.20;;
58669;SDS011;44439;47.924;10.198;2022-10-31T16:23:55;9.57;;;5.20;;
58669;SDS011;44439;47.924;10.198;2022-10-31T16:26:49;11.07;;;5.32;;
58669;SDS011;44439;47.924;10.198;2022-10-31T16:29:42;10.75;;;5.82;;
58669;SDS011;44439;47.924;10.198;2022-10-31T16:35:41;11.35;;;5.57;;
58669;SDS011;44439;47.924;10.198;2022-10-31T16:38:26;14.52;;;4.90;;
58669;SDS011;44439;47.924;10.198;2022-10-31T16:41:12;10.80;;;4.53;;
58669;SDS011;44439;47.924;10.198;2022-10-31T16:43:59;8.43;;;4.35;;
58669;SDS011;44439;47.924;10.198;2022-10-31T16:46:46;10.68;;;5.55;;
58669;SDS011;44439;47.924;10.198;2022-10-31T16:49:31;16.45;;;7.45;;
58669;SDS011;44439;47.924;10.198;2022-10-31T16:52:17;13.98;;;7.78;;
58669;SDS011;44439;47.924;10.198;2022-10-31T16:55:03;14.02;;;5.20;;
58669;SDS011;44439;47.924;10.198;2022-10-31T16:57:50;10.98;;;7.35;;
58669;SDS011;44439;47.924;10.198;2022-10-31T17:00:38;18.40;;;9.25;;
58669;SDS011;44439;47.924;10.198;2022-10-31T17:03:24;10.85;;;7.10;;
58669;SDS011;44439;47.924;10.198;2022-10-31T17:06:10;11.15;;;7.22;;
58669;SDS011;44439;47.924;10.198;2022-10-31T17:08:57;13.50;;;6.30;;
58669;SDS011;44439;47.924;10.198;2022-10-31T17:11:44;14.70;;;7.45;;
58669;SDS011;44439;47.924;10.198;2022-10-31T17:14:32;10.25;;;7.25;;
58669;SDS011;44439;47.924;10.198;2022-10-31T17:17:18;12.20;;;6.57;;
58669;SDS011;44439;47.924;10.198;2022-10-31T17:20:10;9.30;;;5.65;;
58669;SDS011;44439;47.924;10.198;2022-10-31T17:23:08;12.77;;;6.00;;
58669;SDS011;44439;47.924;10.198;2022-10-31T17:25:55;10.05;;;5.00;;
58669;SDS011;44439;47.924;10.198;2022-10-31T17:28:41;8.25;;;5.47;;
58669;SDS011;44439;47.924;10.198;2022-10-31T17:31:27;33.33;;;22.70;;
58669;SDS011;44439;47.924;10.198;2022-10-31T17:34:14;23.80;;;14.50;;
58669;SDS011;44439;47.924;10.198;2022-10-31T17:37:00;23.92;;;12.27;;
58669;SDS011;44439;47.924;10.198;2022-10-31T17:39:46;30.10;;;21.98;;
58669;SDS011;44439;47.924;10.198;2022-10-31T17:42:31;21.45;;;12.98;;
58669;SDS011;44439;47.924;10.198;2022-10-31T17:45:17;18.17;;;11.52;;
58669;SDS011;44439;47.924;10.198;2022-10-31T17:48:04;18.70;;;9.02;;
58669;SDS011;44439;47.924;10.198;2022-10-31T17:50:50;16.95;;;8.88;;
58669;SDS011;44439;47.924;10.198;2022-10-31T17:53:36;14.98;;;11.48;;
58669;SDS011;44439;47.924;10.198;2022-10-31T17:56:21;21.30;;;12.98;;
58669;SDS011;44439;47.924;10.198;2022-10-31T17:59:07;24.63;;;15.40;;
58669;SDS011;44439;47.924;10.198;2022-10-31T18:01:53;25.10;;;16.63;;
58669;SDS011;44439;47.924;10.198;2022-10-31T18:04:38;17.50;;;11.25;;
58669;SDS011;44439;47.924;10.198;2022-10-31T18:07:25;18.40;;;11.32;;
58669;SDS011;44439;47.924;10.198;2022-10-31T18:10:10;15.27;;;10.38;;
58669;SDS011;44439;47.924;10.198;2022-10-31T18:12:56;18.95;;;11.90;;
58669;SDS011;44439;47.924;10.198;2022-10-31T18:15:42;21.63;;;14.82;;
58669;SDS011;44439;47.924;10.198;2022-10-31T18:18:27;16.73;;;11.43;;
58669;SDS011;44439;47.924;10.198;2022-10-31T18:21:13;24.00;;;14.35;;
58669;SDS011;44439;47.924;10.198;2022-10-31T18:23:59;19.35;;;12.60;;
58669;SDS011;44439;47.924;10.198;2022-10-31T18:26:46;14.25;;;10.25;;
58669;SDS011;44439;47.924;10.198;2022-10-31T18:29:32;29.25;;;17.40;;
58669;SDS011;44439;47.924;10.198;2022-10-31T18:32:18;18.63;;;11.25;;
58669;SDS011;44439;47.924;10.198;2022-10-31T18:35:03;15.60;;;10.73;;
58669;SDS011;44439;47.924;10.198;2022-10-31T18:37:49;15.23;;;9.25;;
58669;SDS011;44439;47.924;10.198;2022-10-31T18:40:35;16.63;;;8.65;;